createdAt,value
2022-12-09T00:01:17.862Z,98987.97
2022-12-09T00:03:46.536Z,98958.28
2022-12-09T00:06:17.449Z,98987.16
2022-12-09T00:08:45.283Z,98958.09
2022-12-09T00:11:13.861Z,98992.09
2022-12-09T00:13:41.696Z,98993.09
2022-12-09T00:16:12.635Z,98992.44
2022-12-09T00:18:40.907Z,98989.25
2022-12-09T00:21:15.560Z,98992.28
2022-12-09T00:23:43.414Z,99006.97
2022-12-09T00:26:11.545Z,98999.97
2022-12-09T00:28:40.034Z,99016.91
2022-12-09T00:31:10.484Z,99022.81
2022-12-09T00:33:39.018Z,98971.56
2022-12-09T00:36:09.343Z,99008.28
2022-12-09T00:38:37.782Z,99011.31
2022-12-09T00:41:06.092Z,99010.50
2022-12-09T00:43:34.408Z,99005.56
2022-12-09T00:46:02.861Z,98960.38
2022-12-09T00:48:31.020Z,98901.31
2022-12-09T00:50:59.677Z,98942.00
2022-12-09T00:53:27.913Z,98978.19
2022-12-09T00:55:55.804Z,98971.63
2022-12-09T00:58:24.081Z,98969.09
2022-12-09T01:00:54.279Z,98909.44
2022-12-09T01:03:22.293Z,98985.88
2022-12-09T01:05:50.517Z,98953.34
2022-12-09T01:08:18.691Z,99006.34
2022-12-09T01:10:46.841Z,99007.16
2022-12-09T01:13:15.834Z,98960.38
2022-12-09T01:15:44.611Z,98998.03
2022-12-09T01:18:13.168Z,99002.16
2022-12-09T01:20:40.990Z,98936.25
2022-12-09T01:23:08.760Z,98963.03
2022-12-09T01:25:38.343Z,98978.38
2022-12-09T01:28:06.184Z,99007.47
2022-12-09T01:30:33.834Z,98994.00
2022-12-09T01:33:01.855Z,99009.06
2022-12-09T01:35:29.971Z,98970.72
2022-12-09T01:37:57.927Z,99006.19
2022-12-09T01:40:25.792Z,98951.41
2022-12-09T01:42:54.240Z,98983.97
2022-12-09T01:45:22.492Z,98987.66
2022-12-09T01:48:00.337Z,98986.53
2022-12-09T01:50:29.475Z,98946.78
2022-12-09T01:52:57.891Z,98977.09
2022-12-09T01:55:27.908Z,99003.75
2022-12-09T01:57:55.522Z,98989.88
2022-12-09T02:00:23.513Z,98982.25
2022-12-09T02:02:53.466Z,98992.44
2022-12-09T02:05:24.579Z,98975.00
2022-12-09T02:07:58.755Z,98947.09
2022-12-09T02:10:28.046Z,98980.75
2022-12-09T02:13:22.587Z,98989.56
2022-12-09T02:16:03.305Z,98971.16
2022-12-09T02:18:37.295Z,98995.16
2022-12-09T02:21:12.443Z,98980.88
2022-12-09T02:23:51.840Z,98983.47
2022-12-09T02:26:38.145Z,98952.78
2022-12-09T02:29:30.571Z,98970.84
2022-12-09T02:32:07.667Z,98970.84
2022-12-09T02:34:44.295Z,98933.16
2022-12-09T02:37:25.437Z,98952.78
2022-12-09T02:39:58.627Z,98949.09
2022-12-09T02:42:32.355Z,98930.44
2022-12-09T02:45:05.100Z,98925.66
2022-12-09T02:47:36.923Z,98850.00
2022-12-09T02:50:13.277Z,98890.81
2022-12-09T02:52:42.821Z,98809.22
2022-12-09T02:55:15.787Z,98926.25
2022-12-09T02:57:43.577Z,98871.41
2022-12-09T03:00:15.638Z,98929.75
2022-12-09T03:02:47.836Z,98901.41
2022-12-09T03:05:26.149Z,98868.88
2022-12-09T03:08:07.112Z,98926.25
2022-12-09T03:10:43.586Z,98930.25
2022-12-09T03:13:50.093Z,98940.00
2022-12-09T03:16:29.851Z,98935.19
2022-12-09T03:19:06.957Z,98918.47
2022-12-09T03:21:38.844Z,98874.41
2022-12-09T03:24:10.437Z,98911.59
2022-12-09T03:26:39.556Z,98928.53
2022-12-09T03:29:13.680Z,98937.44
2022-12-09T03:31:43.164Z,98929.97
2022-12-09T03:34:16.289Z,98908.38
2022-12-09T03:36:48.591Z,98853.38
2022-12-09T03:39:20.592Z,98903.56
2022-12-09T03:41:52.880Z,98861.78
2022-12-09T03:44:23.471Z,98885.38
2022-12-09T03:46:51.652Z,98864.69
2022-12-09T03:49:19.575Z,98906.44
2022-12-09T03:51:55.084Z,98905.00
2022-12-09T03:54:35.683Z,98866.41
2022-12-09T03:57:04.763Z,98844.81
2022-12-09T03:59:34.922Z,98821.66
2022-12-09T04:02:06.064Z,98891.22
2022-12-09T04:04:38.661Z,98883.88
2022-12-09T04:07:06.948Z,98895.72
2022-12-09T04:09:35.935Z,98844.19
2022-12-09T04:12:04.190Z,98869.34
2022-12-09T04:14:32.326Z,98821.38
2022-12-09T04:17:00.273Z,98823.75
2022-12-09T04:19:28.372Z,98840.78
2022-12-09T04:21:56.190Z,98863.59
2022-12-09T04:24:24.327Z,98837.94
2022-12-09T04:26:52.168Z,98814.56
2022-12-09T04:29:19.984Z,98770.22
2022-12-09T04:31:47.946Z,98852.16
2022-12-09T04:34:16.266Z,98864.28
2022-12-09T04:36:44.405Z,98827.41
2022-12-09T04:39:12.142Z,98855.81
2022-12-09T04:41:40.063Z,98862.50
2022-12-09T04:44:07.874Z,98847.00
2022-12-09T04:46:35.847Z,98808.47
2022-12-09T04:49:04.177Z,98815.34
2022-12-09T04:51:39.119Z,98863.47
2022-12-09T04:54:12.583Z,98850.72
2022-12-09T04:56:41.102Z,98810.28
2022-12-09T04:59:08.926Z,98851.41
2022-12-09T05:01:37.090Z,98857.94
2022-12-09T05:04:05.447Z,98800.84
2022-12-09T05:06:33.648Z,98861.59
2022-12-09T05:09:02.182Z,98864.59
2022-12-09T05:11:30.452Z,98792.06
2022-12-09T05:13:58.529Z,98866.19
2022-12-09T05:16:26.461Z,98800.81
2022-12-09T05:18:54.723Z,98846.91
2022-12-09T05:21:22.566Z,98822.81
2022-12-09T05:23:50.416Z,98830.34
2022-12-09T05:26:20.801Z,98878.69
2022-12-09T05:28:49.386Z,98795.44
2022-12-09T05:31:20.059Z,98847.75
2022-12-09T05:33:49.662Z,98871.16
2022-12-09T05:36:20.144Z,98844.53
2022-12-09T05:38:49.067Z,98850.47
2022-12-09T05:41:18.603Z,98877.38
2022-12-09T05:43:46.636Z,98849.34
2022-12-09T05:46:15.200Z,98864.47
2022-12-09T05:48:44.329Z,98854.25
2022-12-09T05:51:16.803Z,98861.13
2022-12-09T05:53:44.596Z,98786.19
2022-12-09T05:56:16.163Z,98863.22
2022-12-09T05:58:44.412Z,98805.81
2022-12-09T06:01:13.089Z,98846.44
2022-12-09T06:03:45.728Z,98896.09
2022-12-09T06:06:16.344Z,98861.28
2022-12-09T06:08:45.926Z,98882.78
2022-12-09T06:11:16.832Z,98886.81
2022-12-09T06:13:45.930Z,98885.69
2022-12-09T06:16:15.425Z,98881.50
2022-12-09T06:18:43.633Z,98879.25
2022-12-09T06:21:13.416Z,98873.50
2022-12-09T06:23:42.905Z,98780.72
2022-12-09T06:26:29.165Z,98789.81
2022-12-09T06:28:58.426Z,98879.22
2022-12-09T06:31:28.306Z,98861.00
2022-12-09T06:33:58.401Z,98864.81
2022-12-09T06:36:28.890Z,98819.25
2022-12-09T06:39:05.945Z,98859.59
2022-12-09T06:41:42.148Z,98849.69
2022-12-09T06:44:15.870Z,98844.41
2022-12-09T06:46:49.549Z,98839.28
2022-12-09T06:49:17.531Z,98784.31
2022-12-09T06:51:46.222Z,98864.78
2022-12-09T06:54:14.156Z,98847.53
2022-12-09T06:56:42.515Z,98855.81
2022-12-09T06:59:11.255Z,98789.56
2022-12-09T07:01:39.862Z,98871.53
2022-12-09T07:04:08.411Z,98860.19
2022-12-09T07:06:39.260Z,98850.47
2022-12-09T07:09:08.913Z,98869.63
2022-12-09T07:11:37.867Z,98824.06
2022-12-09T07:14:06.208Z,98785.81
2022-12-09T07:16:35.150Z,98809.72
2022-12-09T07:19:04.386Z,98820.25
2022-12-09T07:21:32.638Z,98851.47
2022-12-09T07:24:02.875Z,98899.19
2022-12-09T07:26:32.775Z,98885.94
2022-12-09T07:29:05.232Z,98885.13
2022-12-09T07:31:33.984Z,98880.84
2022-12-09T07:34:04.104Z,98892.00
2022-12-09T07:36:35.129Z,98845.41
2022-12-09T07:39:07.092Z,98798.69
2022-12-09T07:41:35.333Z,98888.19
2022-12-09T07:44:04.103Z,98832.28
2022-12-09T07:46:32.445Z,98887.84
2022-12-09T07:49:02.742Z,98891.69
2022-12-09T07:51:30.968Z,98843.38
2022-12-09T07:53:59.465Z,98873.97
2022-12-09T07:56:29.347Z,98885.94
2022-12-09T07:58:57.599Z,98883.44
2022-12-09T08:01:28.523Z,98914.25
2022-12-09T08:03:57.308Z,98919.81
2022-12-09T08:06:28.215Z,98885.31
2022-12-09T08:09:01.849Z,98887.91
2022-12-09T08:11:31.865Z,98895.25
2022-12-09T08:14:08.987Z,98926.19
2022-12-09T08:16:40.457Z,98929.38
2022-12-09T08:19:09.027Z,98897.44
2022-12-09T08:21:37.063Z,98940.72
2022-12-09T08:24:07.733Z,98924.13
2022-12-09T08:26:40.011Z,98914.84
2022-12-09T08:29:13.597Z,98927.19
2022-12-09T08:31:44.093Z,98878.94
2022-12-09T08:34:13.051Z,98937.28
2022-12-09T08:36:42.358Z,98936.88
2022-12-09T08:39:11.596Z,98929.63
2022-12-09T08:41:40.254Z,98952.19
2022-12-09T08:44:17.392Z,98913.25
2022-12-09T08:46:48.303Z,98935.75
2022-12-09T08:49:22.342Z,98956.00
2022-12-09T08:51:53.462Z,98914.75
2022-12-09T08:54:21.768Z,98934.41
2022-12-09T08:56:52.261Z,98946.31
2022-12-09T08:59:20.325Z,98953.88
2022-12-09T09:01:48.479Z,98983.22
2022-12-09T09:04:20.472Z,98951.63
2022-12-09T09:06:50.582Z,98959.13
2022-12-09T09:09:20.304Z,98953.22
2022-12-09T09:11:48.927Z,98954.81
2022-12-09T09:14:17.433Z,98934.25
2022-12-09T09:16:46.246Z,98984.69
2022-12-09T09:19:17.610Z,98968.59
2022-12-09T09:21:45.775Z,98989.50
2022-12-09T09:24:16.745Z,98968.13
2022-12-09T09:26:45.670Z,98938.63
2022-12-09T09:29:16.009Z,98935.63
2022-12-09T09:31:44.831Z,98939.13
2022-12-09T09:34:13.193Z,99002.97
2022-12-09T09:36:41.365Z,98992.59
2022-12-09T09:39:09.787Z,98979.22
2022-12-09T09:41:54.698Z,99006.31
2022-12-09T09:44:25.807Z,99008.56
2022-12-09T09:46:56.653Z,99012.91
2022-12-09T09:49:30.913Z,99014.00
2022-12-09T09:52:07.252Z,99012.41
2022-12-09T09:54:35.161Z,99021.69
2022-12-09T09:57:12.618Z,98990.44
2022-12-09T10:00:07.268Z,99028.25
2022-12-09T10:03:05.077Z,99029.25
2022-12-09T10:05:41.328Z,98979.00
2022-12-09T10:08:25.087Z,98998.47
2022-12-09T10:11:09.122Z,99026.84
2022-12-09T10:13:45.236Z,99026.84
2022-12-09T10:16:25.115Z,99015.66
2022-12-09T10:19:14.779Z,98980.22
2022-12-09T10:21:45.525Z,98997.13
2022-12-09T10:24:31.764Z,99000.94
2022-12-09T10:27:12.781Z,98995.16
2022-12-09T10:30:02.896Z,99004.56
2022-12-09T10:32:33.939Z,98993.22
2022-12-09T10:35:14.318Z,98978.03
2022-12-09T10:37:42.347Z,98959.53
2022-12-09T10:40:10.923Z,98984.69
2022-12-09T10:43:05.872Z,98987.06
2022-12-09T10:46:08.023Z,98935.41
2022-12-09T10:48:34.242Z,98980.50
2022-12-09T10:51:12.288Z,98984.03
2022-12-09T10:54:02.925Z,98977.13
2022-12-09T10:56:36.937Z,98943.63
2022-12-09T10:59:13.881Z,98981.13
2022-12-09T11:01:49.666Z,98974.53
2022-12-09T11:04:28.136Z,98933.53
2022-12-09T11:07:07.936Z,98982.53
2022-12-09T11:09:39.534Z,98951.22
2022-12-09T11:12:19.241Z,98922.81
2022-12-09T11:14:53.432Z,98949.13
2022-12-09T11:17:28.582Z,98953.84
2022-12-09T11:20:26.291Z,98939.03
2022-12-09T11:23:14.405Z,98918.44
2022-12-09T11:26:00.243Z,98897.06
2022-12-09T11:28:36.170Z,98951.25
2022-12-09T11:31:32.758Z,98898.13
2022-12-09T11:34:05.444Z,98948.06
2022-12-09T11:36:37.274Z,98944.69
2022-12-09T11:39:25.552Z,98903.25
2022-12-09T11:42:17.377Z,98943.09
2022-12-09T11:45:02.996Z,98873.19
2022-12-09T11:48:21.130Z,98901.66
2022-12-09T11:50:33.420Z,98923.53
2022-12-09T11:53:11.133Z,98903.41
2022-12-09T11:55:46.392Z,98915.94
2022-12-09T11:58:18.358Z,98883.88
2022-12-09T12:00:55.730Z,98881.75
2022-12-09T12:03:36.678Z,98910.50
2022-12-09T12:06:08.743Z,98910.03
2022-12-09T12:08:46.722Z,98881.47
2022-12-09T12:11:30.955Z,98897.69
2022-12-09T12:14:13.034Z,98858.31
2022-12-09T12:17:09.235Z,98801.16
2022-12-09T12:19:42.134Z,98879.03
2022-12-09T12:22:09.667Z,98896.81
2022-12-09T12:25:17.796Z,98881.38
2022-12-09T12:28:01.572Z,98897.63
2022-12-09T12:30:59.963Z,98881.84
2022-12-09T12:36:40.084Z,98891.06
2022-12-09T12:39:28.475Z,98850.41
2022-12-09T12:42:25.692Z,98884.50
2022-12-09T12:45:31.439Z,98872.81
2022-12-09T12:48:08.906Z,98877.56
2022-12-09T12:50:57.829Z,98873.72
2022-12-09T12:53:34.595Z,98864.88
2022-12-09T12:56:07.885Z,98859.91
2022-12-09T12:59:07.984Z,98857.84
2022-12-09T13:02:01.092Z,98861.50
2022-12-09T13:04:44.423Z,98830.56
2022-12-09T13:07:20.948Z,98853.03
2022-12-09T13:09:48.797Z,98851.56
2022-12-09T13:12:45.481Z,98848.81
2022-12-09T13:15:17.827Z,98803.94
2022-12-09T13:17:48.441Z,98823.34
2022-12-09T13:20:30.197Z,98810.88
2022-12-09T13:23:12.917Z,98822.03
2022-12-09T13:26:20.276Z,98850.66
2022-12-09T13:28:52.028Z,98844.53
2022-12-09T13:31:29.413Z,98846.13
2022-12-09T13:34:26.120Z,98828.31
2022-12-09T13:36:53.810Z,98725.78
2022-12-09T13:39:39.993Z,98808.75
2022-12-09T13:42:46.326Z,98817.28
2022-12-09T13:45:16.430Z,98825.47
2022-12-09T13:47:44.290Z,98817.03
2022-12-09T13:50:28.958Z,98830.25
2022-12-09T13:53:34.351Z,98838.88
2022-12-09T13:56:17.776Z,98826.84
2022-12-09T13:59:05.150Z,98838.88
2022-12-09T14:01:42.029Z,98832.28
2022-12-09T14:04:18.861Z,98834.22
2022-12-09T14:06:46.403Z,98831.59
2022-12-09T14:09:39.293Z,98825.25
2022-12-09T14:12:11.906Z,98805.69
2022-12-09T14:14:52.759Z,98830.94
2022-12-09T14:17:27.224Z,98825.59
2022-12-09T14:20:04.164Z,98825.03
2022-12-09T14:22:33.734Z,98827.19
2022-12-09T14:25:26.509Z,98824.81
2022-12-09T14:28:24.451Z,98831.38
2022-12-09T14:31:02.008Z,98787.41
2022-12-09T14:33:47.312Z,98799.34
2022-12-09T14:36:14.905Z,98830.59
2022-12-09T14:41:53.311Z,98837.03
2022-12-09T14:44:39.064Z,98802.19
2022-12-09T14:47:28.495Z,98828.22
2022-12-09T14:50:05.909Z,98806.88
2022-12-09T14:52:34.719Z,98772.31
2022-12-09T14:55:09.381Z,98765.03
2022-12-09T14:57:41.689Z,98788.91
2022-12-09T15:00:36.220Z,98777.75
2022-12-09T15:03:44.863Z,98822.19
2022-12-09T15:06:16.804Z,98822.97
2022-12-09T15:08:44.701Z,98801.38
2022-12-09T15:11:19.503Z,98820.34
2022-12-09T15:13:50.560Z,98831.50
2022-12-09T15:16:21.532Z,98834.56
2022-12-09T15:18:51.331Z,98845.13
2022-12-09T15:21:29.608Z,98843.97
2022-12-09T15:24:00.867Z,98799.44
2022-12-09T15:26:33.688Z,98842.97
2022-12-09T15:29:05.374Z,98844.91
2022-12-09T15:31:34.698Z,98841.16
2022-12-09T15:34:14.804Z,98854.19
2022-12-09T15:36:47.794Z,98847.50
2022-12-09T15:39:18.331Z,98857.25
2022-12-09T15:42:07.271Z,98800.88
2022-12-09T15:44:44.600Z,98857.25
2022-12-09T15:47:18.478Z,98843.38
2022-12-09T15:49:53.721Z,98808.84
2022-12-09T15:52:27.649Z,98840.66
2022-12-09T15:54:56.872Z,98817.03
2022-12-09T15:57:28.163Z,98850.34
2022-12-09T15:59:58.487Z,98838.78
2022-12-09T16:02:29.875Z,98819.91
2022-12-09T16:05:02.011Z,98767.84
2022-12-09T16:07:33.276Z,98831.03
2022-12-09T16:10:01.012Z,98839.56
2022-12-09T16:12:32.740Z,98829.47
2022-12-09T16:15:02.308Z,98821.38
2022-12-09T16:17:38.564Z,98788.41
2022-12-09T16:20:35.976Z,98842.28
2022-12-09T16:23:06.237Z,98838.28
2022-12-09T16:25:45.044Z,98820.66
2022-12-09T16:28:22.811Z,98822.38
2022-12-09T16:31:01.874Z,98835.44
2022-12-09T16:33:35.497Z,98821.59
2022-12-09T16:36:06.683Z,98819.75
2022-12-09T16:38:37.009Z,98808.56
2022-12-09T16:41:08.228Z,98813.88
2022-12-09T16:43:36.900Z,98826.59
2022-12-09T16:46:14.072Z,98832.38
2022-12-09T16:48:42.780Z,98813.50
2022-12-09T16:51:11.799Z,98840.91
2022-12-09T16:53:44.663Z,98771.53
2022-12-09T16:56:25.367Z,98833.13
2022-12-09T16:58:54.344Z,98845.06
2022-12-09T17:01:29.693Z,98809.94
2022-12-09T17:04:02.838Z,98789.72
2022-12-09T17:06:32.150Z,98818.91
2022-12-09T17:08:59.845Z,98826.75
2022-12-09T17:11:27.770Z,98851.56
2022-12-09T17:13:55.452Z,98817.56
2022-12-09T17:16:25.853Z,98855.41
2022-12-09T17:18:53.748Z,98853.47
2022-12-09T17:21:21.571Z,98804.72
2022-12-09T17:23:49.317Z,98780.22
2022-12-09T17:26:19.278Z,98840.84
2022-12-09T17:28:49.187Z,98800.41
2022-12-09T17:31:22.474Z,98815.63
2022-12-09T17:33:51.413Z,98841.09
2022-12-09T17:36:20.096Z,98759.44
2022-12-09T17:38:48.148Z,98835.97
2022-12-09T17:41:20.847Z,98820.59
2022-12-09T17:43:48.652Z,98793.09
2022-12-09T17:46:16.524Z,98837.00
2022-12-09T17:48:44.505Z,98774.09
2022-12-09T17:51:14.836Z,98839.06
2022-12-09T17:53:43.334Z,98833.81
2022-12-09T17:56:16.119Z,98841.56
2022-12-09T17:58:44.492Z,98809.03
2022-12-09T18:01:14.967Z,98817.13
2022-12-09T18:03:56.040Z,98759.69
2022-12-09T18:06:26.116Z,98835.31
2022-12-09T18:08:54.783Z,98845.97
2022-12-09T18:11:23.038Z,98843.81
2022-12-09T18:13:51.138Z,98825.84
2022-12-09T18:16:19.413Z,98829.06
2022-12-09T18:18:47.554Z,98843.03
2022-12-09T18:21:16.195Z,98841.44
2022-12-09T18:23:44.267Z,98844.63
2022-12-09T18:26:14.140Z,98834.19
2022-12-09T18:28:44.735Z,98846.22
2022-12-09T18:31:19.347Z,98851.22
2022-12-09T18:33:48.341Z,98839.81
2022-12-09T18:36:18.891Z,98834.38
2022-12-09T18:38:47.342Z,98856.06
2022-12-09T18:41:21.321Z,98845.81
2022-12-09T18:43:51.431Z,98856.41
2022-12-09T18:46:25.411Z,98843.56
2022-12-09T18:49:02.180Z,98856.41
2022-12-09T18:51:29.957Z,98867.44
2022-12-09T18:53:59.004Z,98839.69
2022-12-09T18:56:27.458Z,98861.31
2022-12-09T18:59:11.777Z,98840.59
2022-12-09T19:01:42.085Z,98860.38
2022-12-09T19:04:23.656Z,98802.47
2022-12-09T19:06:54.835Z,98847.34
2022-12-09T19:09:35.128Z,98885.28
2022-12-09T19:12:37.981Z,98871.34
2022-12-09T19:14:52.784Z,98885.50
2022-12-09T19:17:21.561Z,98839.69
2022-12-09T19:19:49.901Z,98872.22
2022-12-09T19:22:17.529Z,98843.41
2022-12-09T19:24:45.362Z,98880.63
2022-12-09T19:27:13.520Z,98891.06
2022-12-09T19:29:41.515Z,98889.16
2022-12-09T19:32:29.383Z,98898.13
2022-12-09T19:34:56.709Z,98897.19
2022-12-09T19:37:24.480Z,98862.13
2022-12-09T19:39:52.446Z,98892.53
2022-12-09T19:42:20.237Z,98869.78
2022-12-09T19:45:10.452Z,98888.09
2022-12-09T19:47:38.594Z,98848.34
2022-12-09T19:50:07.577Z,98871.00
2022-12-09T19:52:35.465Z,98857.00
2022-12-09T19:55:04.464Z,98894.00
2022-12-09T19:57:32.202Z,98883.31
2022-12-09T19:59:59.831Z,98889.25
2022-12-09T20:02:27.473Z,98872.16
2022-12-09T20:04:55.196Z,98892.41
2022-12-09T20:07:22.918Z,98882.16
2022-12-09T20:09:50.653Z,98873.78
2022-12-09T20:12:18.544Z,98865.72
2022-12-09T20:14:46.299Z,98832.94
2022-12-09T20:17:13.964Z,98856.75
2022-12-09T20:19:44.081Z,98804.72
2022-12-09T20:22:11.777Z,98829.56
2022-12-09T20:24:39.509Z,98882.22
2022-12-09T20:27:07.211Z,98816.03
2022-12-09T20:29:37.880Z,98879.03
2022-12-09T20:32:08.445Z,98825.78
2022-12-09T20:34:36.424Z,98866.16
2022-12-09T20:37:04.635Z,98869.94
2022-12-09T20:39:32.481Z,98868.88
2022-12-09T20:42:00.742Z,98823.78
2022-12-09T20:44:28.513Z,98829.44
2022-12-09T20:46:57.043Z,98803.16
2022-12-09T20:49:27.150Z,98866.88
2022-12-09T20:51:55.764Z,98841.53
2022-12-09T20:54:23.504Z,98793.75
2022-12-09T20:56:51.658Z,98855.88
2022-12-09T20:59:19.239Z,98876.56
2022-12-09T21:01:47.513Z,98885.19
2022-12-09T21:04:15.811Z,98879.06
2022-12-09T21:06:44.053Z,98861.22
2022-12-09T21:09:17.549Z,98875.19
2022-12-09T21:11:46.822Z,98878.16
2022-12-09T21:14:18.373Z,98877.03
2022-12-09T21:16:47.399Z,98879.59
2022-12-09T21:19:17.088Z,98863.59
2022-12-09T21:21:48.177Z,98875.53
2022-12-09T21:24:16.655Z,98886.16
2022-12-09T21:26:47.308Z,98875.94
2022-12-09T21:29:15.638Z,98868.88
2022-12-09T21:31:44.463Z,98877.41
2022-12-09T21:34:12.829Z,98857.63
2022-12-09T21:36:44.317Z,98867.06
2022-12-09T21:39:14.092Z,98872.75
2022-12-09T21:41:42.794Z,98860.16
2022-12-09T21:44:18.105Z,98871.16
2022-12-09T21:46:46.418Z,98840.31
2022-12-09T21:49:14.910Z,98848.50
2022-12-09T21:51:43.630Z,98827.31
2022-12-09T21:54:11.983Z,98874.72
2022-12-09T21:56:40.072Z,98849.00
2022-12-09T21:59:08.398Z,98870.09
2022-12-09T22:01:39.031Z,98872.81
2022-12-09T22:04:10.059Z,98881.53
2022-12-09T22:06:39.124Z,98856.25
2022-12-09T22:09:08.054Z,98880.50
2022-12-09T22:11:37.429Z,98855.66
2022-12-09T22:14:06.403Z,98888.81
2022-12-09T22:16:40.811Z,98867.59
2022-12-09T22:19:11.042Z,98891.53
2022-12-09T22:21:39.306Z,98848.97
2022-12-09T22:24:08.414Z,98891.66
2022-12-09T22:26:36.043Z,98858.19
2022-12-09T22:29:05.694Z,98893.91
2022-12-09T22:31:37.904Z,98899.34
2022-12-09T22:34:13.117Z,98853.00
2022-12-09T22:36:41.262Z,98912.72
2022-12-09T22:39:13.645Z,98894.50
2022-12-09T22:41:41.930Z,98872.53
2022-12-09T22:44:12.736Z,98862.03
2022-12-09T22:46:42.573Z,98877.84
2022-12-09T22:49:12.362Z,98905.53
2022-12-09T22:51:41.603Z,98902.81
2022-12-09T22:54:10.227Z,98907.16
2022-12-09T22:56:39.985Z,98908.09
2022-12-09T22:59:07.756Z,98906.50
2022-12-09T23:01:37.493Z,98897.09
2022-12-09T23:04:07.226Z,98901.88
2022-12-09T23:06:37.826Z,98891.38
2022-12-09T23:09:14.998Z,98900.91
2022-12-09T23:11:42.760Z,98861.78
2022-12-09T23:14:10.559Z,98912.63
2022-12-09T23:16:38.218Z,98920.47
2022-12-09T23:19:06.005Z,98921.91
2022-12-09T23:21:36.682Z,98889.09
2022-12-09T23:24:22.551Z,98885.41
2022-12-09T23:26:55.901Z,98911.69
2022-12-09T23:29:23.667Z,98881.44
2022-12-09T23:31:51.632Z,98879.69
2022-12-09T23:34:19.555Z,98917.94
2022-12-09T23:36:47.492Z,98877.03
2022-12-09T23:39:17.735Z,98884.47
2022-12-09T23:41:46.456Z,98899.63
2022-12-09T23:44:20.053Z,98905.97
2022-12-09T23:46:48.086Z,98909.84
2022-12-09T23:49:16.346Z,98906.19
2022-12-09T23:51:44.730Z,98902.97
2022-12-09T23:54:14.827Z,98901.84
2022-12-09T23:56:48.055Z,98883.19
2022-12-09T23:59:18.186Z,98898.47
